Lee, Nevada
Current Conditions -  °F | °C
As of 11:56 AM on Wednesday 28 Jan 2015 (Local Time) from KEKO Reporting Station
Clear Clear  
Wind Chill: 45°   Ceiling: Unl
Heat Index: 49°   Visibility: 10mi
Dew Point: 36°   Wind: 9mph
Humidity: 61%   Direction: 210°SSW
Pressure: 30.32"   Gusts: NA
Location:  40.8005°N, 115.707°W
Report Text: KEKO 281956Z AUTO 21008KT 10SM CLR 09/02 A3032 RMK AO2 SLP262 T00940022
Loading
Personal Weather Stations






























Interactive Weather Map New forecast layout! Learn more

10-Day Weather Forecast

Advertisements
Track Severe Weather on mobile